sensor_id;sensor_type;location;lat;lon;timestamp;P1;P2;P0
77699;PMS5003;66867;42.658;23.320;2023-02-11T00:00:00;43;41;
77699;PMS5003;66867;42.658;23.320;2023-02-11T00:01:04;50;45;
77699;PMS5003;66867;42.658;23.320;2023-02-11T00:02:00;48;43;
77699;PMS5003;66867;42.658;23.320;2023-02-11T00:03:00;50;45;
77699;PMS5003;66867;42.658;23.320;2023-02-11T00:04:01;52;45;
77699;PMS5003;66867;42.658;23.320;2023-02-11T00:05:00;46;41;
77699;PMS5003;66867;42.658;23.320;2023-02-11T00:06:02;46;44;
77699;PMS5003;66867;42.658;23.320;2023-02-11T00:07:00;49;43;
77699;PMS5003;66867;42.658;23.320;2023-02-11T00:08:00;52;45;
77699;PMS5003;66867;42.658;23.320;2023-02-11T00:09:00;55;45;
77699;PMS5003;66867;42.658;23.320;2023-02-11T00:10:00;53;45;
77699;PMS5003;66867;42.658;23.320;2023-02-11T00:11:00;42;39;
77699;PMS5003;66867;42.658;23.320;2023-02-11T00:12:00;52;46;
77699;PMS5003;66867;42.658;23.320;2023-02-11T00:13:00;53;45;
77699;PMS5003;66867;42.658;23.320;2023-02-11T00:14:03;50;43;
77699;PMS5003;66867;42.658;23.320;2023-02-11T00:15:00;52;44;
77699;PMS5003;66867;42.658;23.320;2023-02-11T00:16:06;55;46;
77699;PMS5003;66867;42.658;23.320;2023-02-11T00:17:00;49;42;
77699;PMS5003;66867;42.658;23.320;2023-02-11T00:18:00;56;48;
77699;PMS5003;66867;42.658;23.320;2023-02-11T00:19:01;55;44;
77699;PMS5003;66867;42.658;23.320;2023-02-11T00:20:00;45;41;
77699;PMS5003;66867;42.658;23.320;2023-02-11T00:21:04;53;45;
77699;PMS5003;66867;42.658;23.320;2023-02-11T00:22:00;48;44;
77699;PMS5003;66867;42.658;23.320;2023-02-11T00:23:00;56;46;
77699;PMS5003;66867;42.658;23.320;2023-02-11T00:24:00;49;44;
77699;PMS5003;66867;42.658;23.320;2023-02-11T00:25:00;52;45;
77699;PMS5003;66867;42.658;23.320;2023-02-11T00:26:00;50;44;
77699;PMS5003;66867;42.658;23.320;2023-02-11T00:27:00;52;45;
77699;PMS5003;66867;42.658;23.320;2023-02-11T00:28:00;52;44;
77699;PMS5003;66867;42.658;23.320;2023-02-11T00:29:01;42;41;
77699;PMS5003;66867;42.658;23.320;2023-02-11T00:30:00;51;45;
77699;PMS5003;66867;42.658;23.320;2023-02-11T00:31:00;51;45;
77699;PMS5003;66867;42.658;23.320;2023-02-11T00:32:00;55;45;
77699;PMS5003;66867;42.658;23.320;2023-02-11T00:33:00;45;42;
77699;PMS5003;66867;42.658;23.320;2023-02-11T00:34:00;51;44;
77699;PMS5003;66867;42.658;23.320;2023-02-11T00:35:00;55;45;
77699;PMS5003;66867;42.658;23.320;2023-02-11T00:36:05;48;41;
77699;PMS5003;66867;42.658;23.320;2023-02-11T00:37:00;48;42;
77699;PMS5003;66867;42.658;23.320;2023-02-11T00:38:00;55;45;
77699;PMS5003;66867;42.658;23.320;2023-02-11T00:39:00;49;44;
77699;PMS5003;66867;42.658;23.320;2023-02-11T00:40:01;51;45;
77699;PMS5003;66867;42.658;23.320;2023-02-11T00:41:00;49;42;
77699;PMS5003;66867;42.658;23.320;2023-02-11T00:42:00;52;44;
77699;PMS5003;66867;42.658;23.320;2023-02-11T00:43:00;47;41;
77699;PMS5003;66867;42.658;23.320;2023-02-11T00:44:01;52;45;
77699;PMS5003;66867;42.658;23.320;2023-02-11T00:45:00;48;41;
77699;PMS5003;66867;42.658;23.320;2023-02-11T00:46:00;49;42;
77699;PMS5003;66867;42.658;23.320;2023-02-11T00:47:00;45;41;
77699;PMS5003;66867;42.658;23.320;2023-02-11T00:48:00;48;41;
77699;PMS5003;66867;42.658;23.320;2023-02-11T00:49:00;56;48;
77699;PMS5003;66867;42.658;23.320;2023-02-11T00:50:00;49;42;
77699;PMS5003;66867;42.658;23.320;2023-02-11T00:51:01;49;45;
77699;PMS5003;66867;42.658;23.320;2023-02-11T00:52:00;44;41;
77699;PMS5003;66867;42.658;23.320;2023-02-11T00:53:00;42;39;
77699;PMS5003;66867;42.658;23.320;2023-02-11T00:54:00;51;45;
77699;PMS5003;66867;42.658;23.320;2023-02-11T00:55:00;49;42;
77699;PMS5003;66867;42.658;23.320;2023-02-11T00:56:00;51;42;
77699;PMS5003;66867;42.658;23.320;2023-02-11T00:57:00;51;44;
77699;PMS5003;66867;42.658;23.320;2023-02-11T00:58:00;54;45;
77699;PMS5003;66867;42.658;23.320;2023-02-11T00:59:00;51;41;
77699;PMS5003;66867;42.658;23.320;2023-02-11T01:00:00;49;42;
77699;PMS5003;66867;42.658;23.320;2023-02-11T01:01:00;41;41;
77699;PMS5003;66867;42.658;23.320;2023-02-11T01:02:00;49;42;
77699;PMS5003;66867;42.658;23.320;2023-02-11T01:03:00;51;44;
77699;PMS5003;66867;42.658;23.320;2023-02-11T01:04:00;48;45;
77699;PMS5003;66867;42.658;23.320;2023-02-11T01:05:00;51;45;
77699;PMS5003;66867;42.658;23.320;2023-02-11T01:06:00;45;41;
77699;PMS5003;66867;42.658;23.320;2023-02-11T01:07:00;45;41;
77699;PMS5003;66867;42.658;23.320;2023-02-11T01:08:00;51;41;
77699;PMS5003;66867;42.658;23.320;2023-02-11T01:09:00;48;44;
77699;PMS5003;66867;42.658;23.320;2023-02-11T01:10:00;47;44;
77699;PMS5003;66867;42.658;23.320;2023-02-11T01:11:02;54;44;
77699;PMS5003;66867;42.658;23.320;2023-02-11T01:12:00;44;41;
77699;PMS5003;66867;42.658;23.320;2023-02-11T01:13:00;48;44;
77699;PMS5003;66867;42.658;23.320;2023-02-11T01:14:00;50;46;
77699;PMS5003;66867;42.658;23.320;2023-02-11T01:15:00;48;44;
77699;PMS5003;66867;42.658;23.320;2023-02-11T01:16:00;48;41;
77699;PMS5003;66867;42.658;23.320;2023-02-11T01:17:00;49;45;
77699;PMS5003;66867;42.658;23.320;2023-02-11T01:18:00;45;41;
77699;PMS5003;66867;42.658;23.320;2023-02-11T01:19:00;47;42;
77699;PMS5003;66867;42.658;23.320;2023-02-11T01:20:04;40;40;
77699;PMS5003;66867;42.658;23.320;2023-02-11T01:21:00;44;41;
77699;PMS5003;66867;42.658;23.320;2023-02-11T01:22:00;44;41;
77699;PMS5003;66867;42.658;23.320;2023-02-11T01:23:00;48;44;
77699;PMS5003;66867;42.658;23.320;2023-02-11T01:24:00;42;41;
77699;PMS5003;66867;42.658;23.320;2023-02-11T01:25:00;48;44;
77699;PMS5003;66867;42.658;23.320;2023-02-11T01:26:00;54;45;
77699;PMS5003;66867;42.658;23.320;2023-02-11T01:27:00;48;43;
77699;PMS5003;66867;42.658;23.320;2023-02-11T01:28:00;57;45;
77699;PMS5003;66867;42.658;23.320;2023-02-11T01:29:00;50;46;
77699;PMS5003;66867;42.658;23.320;2023-02-11T01:30:01;48;42;
77699;PMS5003;66867;42.658;23.320;2023-02-11T01:31:01;51;44;
77699;PMS5003;66867;42.658;23.320;2023-02-11T01:32:00;55;45;
77699;PMS5003;66867;42.658;23.320;2023-02-11T01:33:00;44;41;
77699;PMS5003;66867;42.658;23.320;2023-02-11T01:34:00;45;41;
77699;PMS5003;66867;42.658;23.320;2023-02-11T01:35:00;46;41;
77699;PMS5003;66867;42.658;23.320;2023-02-11T01:36:02;43;41;
77699;PMS5003;66867;42.658;23.320;2023-02-11T01:37:00;50;44;
77699;PMS5003;66867;42.658;23.320;2023-02-11T01:38:00;46;43;
77699;PMS5003;66867;42.658;23.320;2023-02-11T01:39:00;44;42;
77699;PMS5003;66867;42.658;23.320;2023-02-11T01:40:02;46;43;
77699;PMS5003;66867;42.658;23.320;2023-02-11T01:41:04;51;44;
77699;PMS5003;66867;42.658;23.320;2023-02-11T01:42:00;50;46;
77699;PMS5003;66867;42.658;23.320;2023-02-11T01:43:00;51;44;
77699;PMS5003;66867;42.658;23.320;2023-02-11T01:44:34;51;45;
77699;PMS5003;66867;42.658;23.320;2023-02-11T01:45:03;48;44;
77699;PMS5003;66867;42.658;23.320;2023-02-11T01:46:10;48;44;
77699;PMS5003;66867;42.658;23.320;2023-02-11T01:47:00;43;41;
77699;PMS5003;66867;42.658;23.320;2023-02-11T01:48:00;46;42;
77699;PMS5003;66867;42.658;23.320;2023-02-11T01:49:05;48;44;
77699;PMS5003;66867;42.658;23.320;2023-02-11T01:50:00;52;46;
77699;PMS5003;66867;42.658;23.320;2023-02-11T01:51:05;60;47;
77699;PMS5003;66867;42.658;23.320;2023-02-11T01:52:04;52;45;
77699;PMS5003;66867;42.658;23.320;2023-02-11T01:53:00;61;49;
77699;PMS5003;66867;42.658;23.320;2023-02-11T01:54:01;62;47;
77699;PMS5003;66867;42.658;23.320;2023-02-11T01:55:04;54;46;
77699;PMS5003;66867;42.658;23.320;2023-02-11T01:56:01;57;45;
77699;PMS5003;66867;42.658;23.320;2023-02-11T01:57:01;51;46;
77699;PMS5003;66867;42.658;23.320;2023-02-11T01:58:03;51;46;
77699;PMS5003;66867;42.658;23.320;2023-02-11T01:59:04;54;47;
77699;PMS5003;66867;42.658;23.320;2023-02-11T02:01:01;55;47;
77699;PMS5003;66867;42.658;23.320;2023-02-11T02:02:05;63;50;
77699;PMS5003;66867;42.658;23.320;2023-02-11T02:04:01;65;51;
77699;PMS5003;66867;42.658;23.320;2023-02-11T02:05:07;61;47;
77699;PMS5003;66867;42.658;23.320;2023-02-11T02:06:15;66;54;
77699;PMS5003;66867;42.658;23.320;2023-02-11T02:07:05;57;48;
77699;PMS5003;66867;42.658;23.320;2023-02-11T02:08:08;64;53;
77699;PMS5003;66867;42.658;23.320;2023-02-11T02:09:03;69;54;
77699;PMS5003;66867;42.658;23.320;2023-02-11T02:10:04;67;51;
77699;PMS5003;66867;42.658;23.320;2023-02-11T02:11:00;68;56;
77699;PMS5003;66867;42.658;23.320;2023-02-11T02:12:00;62;53;
77699;PMS5003;66867;42.658;23.320;2023-02-11T02:13:00;61;51;
77699;PMS5003;66867;42.658;23.320;2023-02-11T02:14:00;61;50;
77699;PMS5003;66867;42.658;23.320;2023-02-11T02:15:27;64;53;
77699;PMS5003;66867;42.658;23.320;2023-02-11T02:16:03;68;56;
77699;PMS5003;66867;42.658;23.320;2023-02-11T02:17:00;69;53;
77699;PMS5003;66867;42.658;23.320;2023-02-11T02:18:02;62;54;
77699;PMS5003;66867;42.658;23.320;2023-02-11T02:34:05;60;46;
77699;PMS5003;66867;42.658;23.320;2023-02-11T02:35:03;53;46;
77699;PMS5003;66867;42.658;23.320;2023-02-11T02:36:06;46;43;
77699;PMS5003;66867;42.658;23.320;2023-02-11T02:37:08;56;49;
77699;PMS5003;66867;42.658;23.320;2023-02-11T02:39:07;54;44;
77699;PMS5003;66867;42.658;23.320;2023-02-11T02:40:03;63;51;
77699;PMS5003;66867;42.658;23.320;2023-02-11T02:41:05;57;46;
77699;PMS5003;66867;42.658;23.320;2023-02-11T02:42:01;50;46;
77699;PMS5003;66867;42.658;23.320;2023-02-11T02:43:02;52;44;
77699;PMS5003;66867;42.658;23.320;2023-02-11T02:44:01;49;42;
77699;PMS5003;66867;42.658;23.320;2023-02-11T02:45:00;39;39;
77699;PMS5003;66867;42.658;23.320;2023-02-11T02:46:11;42;39;
77699;PMS5003;66867;42.658;23.320;2023-02-11T02:47:00;53;46;
77699;PMS5003;66867;42.658;23.320;2023-02-11T02:48:00;43;42;
77699;PMS5003;66867;42.658;23.320;2023-02-11T02:49:00;50;45;
77699;PMS5003;66867;42.658;23.320;2023-02-11T02:50:00;57;46;
77699;PMS5003;66867;42.658;23.320;2023-02-11T02:55:05;40;40;
77699;PMS5003;66867;42.658;23.320;2023-02-11T02:56:13;53;44;
77699;PMS5003;66867;42.658;23.320;2023-02-11T03:00:16;56;46;
77699;PMS5003;66867;42.658;23.320;2023-02-11T03:01:07;52;46;
77699;PMS5003;66867;42.658;23.320;2023-02-11T03:02:13;55;45;
77699;PMS5003;66867;42.658;23.320;2023-02-11T03:03:09;60;49;
77699;PMS5003;66867;42.658;23.320;2023-02-11T03:05:12;51;45;
77699;PMS5003;66867;42.658;23.320;2023-02-11T03:06:04;51;43;
77699;PMS5003;66867;42.658;23.320;2023-02-11T03:07:07;58;46;
77699;PMS5003;66867;42.658;23.320;2023-02-11T03:10:08;51;45;
77699;PMS5003;66867;42.658;23.320;2023-02-11T03:11:01;45;42;
77699;PMS5003;66867;42.658;23.320;2023-02-11T03:12:01;53;43;
77699;PMS5003;66867;42.658;23.320;2023-02-11T03:13:01;48;43;
77699;PMS5003;66867;42.658;23.320;2023-02-11T03:14:01;53;44;
77699;PMS5003;66867;42.658;23.320;2023-02-11T03:15:02;43;42;
77699;PMS5003;66867;42.658;23.320;2023-02-11T03:16:06;48;43;
77699;PMS5003;66867;42.658;23.320;2023-02-11T03:17:02;53;46;
77699;PMS5003;66867;42.658;23.320;2023-02-11T03:18:02;55;45;
77699;PMS5003;66867;42.658;23.320;2023-02-11T03:19:05;49;45;
77699;PMS5003;66867;42.658;23.320;2023-02-11T03:20:01;48;43;
77699;PMS5003;66867;42.658;23.320;2023-02-11T03:21:02;45;43;
77699;PMS5003;66867;42.658;23.320;2023-02-11T03:22:02;50;45;
77699;PMS5003;66867;42.658;23.320;2023-02-11T03:23:05;52;45;
77699;PMS5003;66867;42.658;23.320;2023-02-11T03:24:05;52;46;
77699;PMS5003;66867;42.658;23.320;2023-02-11T03:25:01;55;45;
77699;PMS5003;66867;42.658;23.320;2023-02-11T03:26:05;45;42;
77699;PMS5003;66867;42.658;23.320;2023-02-11T03:27:06;50;45;
77699;PMS5003;66867;42.658;23.320;2023-02-11T03:28:06;50;45;
77699;PMS5003;66867;42.658;23.320;2023-02-11T03:29:09;49;45;
77699;PMS5003;66867;42.658;23.320;2023-02-11T03:30:09;62;49;
77699;PMS5003;66867;42.658;23.320;2023-02-11T03:31:10;50;45;
77699;PMS5003;66867;42.658;23.320;2023-02-11T03:32:09;53;46;
77699;PMS5003;66867;42.658;23.320;2023-02-11T03:33:06;46;42;
77699;PMS5003;66867;42.658;23.320;2023-02-11T03:34:06;44;41;
77699;PMS5003;66867;42.658;23.320;2023-02-11T03:35:02;56;48;
77699;PMS5003;66867;42.658;23.320;2023-02-11T03:36:05;53;46;
77699;PMS5003;66867;42.658;23.320;2023-02-11T03:37:12;57;46;
77699;PMS5003;66867;42.658;23.320;2023-02-11T03:38:05;41;39;
77699;PMS5003;66867;42.658;23.320;2023-02-11T03:39:01;45;43;
77699;PMS5003;66867;42.658;23.320;2023-02-11T03:40:04;52;42;
77699;PMS5003;66867;42.658;23.320;2023-02-11T03:41:02;55;47;
77699;PMS5003;66867;42.658;23.320;2023-02-11T03:42:02;54;46;
77699;PMS5003;66867;42.658;23.320;2023-02-11T03:43:05;49;45;
77699;PMS5003;66867;42.658;23.320;2023-02-11T03:44:01;55;46;
77699;PMS5003;66867;42.658;23.320;2023-02-11T03:45:05;58;48;
77699;PMS5003;66867;42.658;23.320;2023-02-11T03:46:01;59;45;
77699;PMS5003;66867;42.658;23.320;2023-02-11T03:47:01;54;46;
77699;PMS5003;66867;42.658;23.320;2023-02-11T03:48:04;51;46;
77699;PMS5003;66867;42.658;23.320;2023-02-11T03:49:05;52;46;
77699;PMS5003;66867;42.658;23.320;2023-02-11T03:50:03;59;49;
77699;PMS5003;66867;42.658;23.320;2023-02-11T03:51:02;49;45;
77699;PMS5003;66867;42.658;23.320;2023-02-11T03:52:02;48;45;
77699;PMS5003;66867;42.658;23.320;2023-02-11T03:53:01;49;45;
77699;PMS5003;66867;42.658;23.320;2023-02-11T03:54:02;56;46;
77699;PMS5003;66867;42.658;23.320;2023-02-11T03:55:04;58;45;
77699;PMS5003;66867;42.658;23.320;2023-02-11T03:56:04;52;46;
77699;PMS5003;66867;42.658;23.320;2023-02-11T03:57:01;55;48;
77699;PMS5003;66867;42.658;23.320;2023-02-11T03:58:00;48;45;
77699;PMS5003;66867;42.658;23.320;2023-02-11T03:59:00;58;46;
77699;PMS5003;66867;42.658;23.320;2023-02-11T04:00:00;49;42;
77699;PMS5003;66867;42.658;23.320;2023-02-11T04:01:00;60;49;
77699;PMS5003;66867;42.658;23.320;2023-02-11T04:02:00;65;51;
77699;PMS5003;66867;42.658;23.320;2023-02-11T04:03:00;56;45;
77699;PMS5003;66867;42.658;23.320;2023-02-11T04:04:00;51;46;
77699;PMS5003;66867;42.658;23.320;2023-02-11T04:05:00;59;48;
77699;PMS5003;66867;42.658;23.320;2023-02-11T04:06:00;58;48;
77699;PMS5003;66867;42.658;23.320;2023-02-11T04:07:00;49;43;
77699;PMS5003;66867;42.658;23.320;2023-02-11T04:08:00;58;49;
77699;PMS5003;66867;42.658;23.320;2023-02-11T04:09:00;49;44;
77699;PMS5003;66867;42.658;23.320;2023-02-11T04:10:00;51;45;
77699;PMS5003;66867;42.658;23.320;2023-02-11T04:11:00;63;49;
77699;PMS5003;66867;42.658;23.320;2023-02-11T04:12:00;58;49;
77699;PMS5003;66867;42.658;23.320;2023-02-11T04:13:00;58;47;
77699;PMS5003;66867;42.658;23.320;2023-02-11T04:14:00;51;45;
77699;PMS5003;66867;42.658;23.320;2023-02-11T04:15:00;52;45;
77699;PMS5003;66867;42.658;23.320;2023-02-11T04:16:00;52;46;
77699;PMS5003;66867;42.658;23.320;2023-02-11T04:17:00;56;48;
77699;PMS5003;66867;42.658;23.320;2023-02-11T04:18:00;57;48;
77699;PMS5003;66867;42.658;23.320;2023-02-11T04:19:00;61;51;
77699;PMS5003;66867;42.658;23.320;2023-02-11T04:20:00;60;50;
77699;PMS5003;66867;42.658;23.320;2023-02-11T04:21:00;54;47;
77699;PMS5003;66867;42.658;23.320;2023-02-11T04:22:00;55;46;
77699;PMS5003;66867;42.658;23.320;2023-02-11T04:23:00;51;45;
77699;PMS5003;66867;42.658;23.320;2023-02-11T04:24:00;59;49;
77699;PMS5003;66867;42.658;23.320;2023-02-11T04:25:00;54;46;
77699;PMS5003;66867;42.658;23.320;2023-02-11T04:26:00;51;44;
77699;PMS5003;66867;42.658;23.320;2023-02-11T04:27:00;52;45;
77699;PMS5003;66867;42.658;23.320;2023-02-11T04:28:00;63;49;
77699;PMS5003;66867;42.658;23.320;2023-02-11T04:29:00;59;49;
77699;PMS5003;66867;42.658;23.320;2023-02-11T04:30:00;64;49;
77699;PMS5003;66867;42.658;23.320;2023-02-11T04:31:00;65;51;
77699;PMS5003;66867;42.658;23.320;2023-02-11T04:32:00;65;53;
77699;PMS5003;66867;42.658;23.320;2023-02-11T04:33:00;59;48;
77699;PMS5003;66867;42.658;23.320;2023-02-11T04:34:00;61;49;
77699;PMS5003;66867;42.658;23.320;2023-02-11T04:35:00;62;50;
77699;PMS5003;66867;42.658;23.320;2023-02-11T04:36:00;62;49;
77699;PMS5003;66867;42.658;23.320;2023-02-11T04:37:00;61;50;
77699;PMS5003;66867;42.658;23.320;2023-02-11T04:38:00;52;45;
77699;PMS5003;66867;42.658;23.320;2023-02-11T04:39:00;61;46;
77699;PMS5003;66867;42.658;23.320;2023-02-11T04:40:00;48;41;
77699;PMS5003;66867;42.658;23.320;2023-02-11T04:41:00;64;49;
77699;PMS5003;66867;42.658;23.320;2023-02-11T04:42:00;64;52;
77699;PMS5003;66867;42.658;23.320;2023-02-11T04:43:00;59;51;
77699;PMS5003;66867;42.658;23.320;2023-02-11T04:44:00;57;47;
77699;PMS5003;66867;42.658;23.320;2023-02-11T04:45:00;62;50;
77699;PMS5003;66867;42.658;23.320;2023-02-11T04:46:00;62;52;
77699;PMS5003;66867;42.658;23.320;2023-02-11T04:47:00;67;52;
77699;PMS5003;66867;42.658;23.320;2023-02-11T04:48:01;67;54;
77699;PMS5003;66867;42.658;23.320;2023-02-11T04:49:00;56;45;
77699;PMS5003;66867;42.658;23.320;2023-02-11T04:50:00;59;48;
77699;PMS5003;66867;42.658;23.320;2023-02-11T04:51:01;58;46;
77699;PMS5003;66867;42.658;23.320;2023-02-11T04:52:00;51;47;
77699;PMS5003;66867;42.658;23.320;2023-02-11T04:53:00;52;48;
77699;PMS5003;66867;42.658;23.320;2023-02-11T04:54:00;61;51;
77699;PMS5003;66867;42.658;23.320;2023-02-11T04:55:00;58;49;
77699;PMS5003;66867;42.658;23.320;2023-02-11T04:56:00;58;46;
77699;PMS5003;66867;42.658;23.320;2023-02-11T04:57:00;59;49;
77699;PMS5003;66867;42.658;23.320;2023-02-11T04:58:00;59;49;
77699;PMS5003;66867;42.658;23.320;2023-02-11T04:59:00;65;52;
77699;PMS5003;66867;42.658;23.320;2023-02-11T05:00:00;59;51;
77699;PMS5003;66867;42.658;23.320;2023-02-11T05:01:04;60;50;
77699;PMS5003;66867;42.658;23.320;2023-02-11T05:02:00;59;49;
77699;PMS5003;66867;42.658;23.320;2023-02-11T05:03:00;60;50;
77699;PMS5003;66867;42.658;23.320;2023-02-11T05:04:00;59;48;
77699;PMS5003;66867;42.658;23.320;2023-02-11T05:05:00;60;50;
77699;PMS5003;66867;42.658;23.320;2023-02-11T05:06:00;62;54;
77699;PMS5003;66867;42.658;23.320;2023-02-11T05:07:00;61;50;
77699;PMS5003;66867;42.658;23.320;2023-02-11T05:08:00;62;51;
77699;PMS5003;66867;42.658;23.320;2023-02-11T05:09:00;63;52;
77699;PMS5003;66867;42.658;23.320;2023-02-11T05:10:00;62;51;
77699;PMS5003;66867;42.658;23.320;2023-02-11T05:11:00;59;51;
77699;PMS5003;66867;42.658;23.320;2023-02-11T05:12:00;55;47;
77699;PMS5003;66867;42.658;23.320;2023-02-11T05:13:00;61;50;
77699;PMS5003;66867;42.658;23.320;2023-02-11T05:14:00;55;45;
77699;PMS5003;66867;42.658;23.320;2023-02-11T05:15:00;64;54;
77699;PMS5003;66867;42.658;23.320;2023-02-11T05:16:00;58;50;
77699;PMS5003;66867;42.658;23.320;2023-02-11T05:17:00;68;54;
77699;PMS5003;66867;42.658;23.320;2023-02-11T05:18:00;63;50;
77699;PMS5003;66867;42.658;23.320;2023-02-11T05:19:00;67;52;
77699;PMS5003;66867;42.658;23.320;2023-02-11T05:20:00;57;48;
77699;PMS5003;66867;42.658;23.320;2023-02-11T05:21:04;64;53;
77699;PMS5003;66867;42.658;23.320;2023-02-11T05:22:00;63;50;
77699;PMS5003;66867;42.658;23.320;2023-02-11T05:23:00;57;45;
77699;PMS5003;66867;42.658;23.320;2023-02-11T05:24:00;57;50;
77699;PMS5003;66867;42.658;23.320;2023-02-11T05:25:00;57;50;
77699;PMS5003;66867;42.658;23.320;2023-02-11T05:26:00;62;52;
77699;PMS5003;66867;42.658;23.320;2023-02-11T05:27:00;64;51;
77699;PMS5003;66867;42.658;23.320;2023-02-11T05:28:00;63;50;
77699;PMS5003;66867;42.658;23.320;2023-02-11T05:29:00;64;53;
77699;PMS5003;66867;42.658;23.320;2023-02-11T05:30:00;60;50;
77699;PMS5003;66867;42.658;23.320;2023-02-11T05:31:00;64;51;
77699;PMS5003;66867;42.658;23.320;2023-02-11T05:32:00;64;54;
77699;PMS5003;66867;42.658;23.320;2023-02-11T05:33:00;70;55;
77699;PMS5003;66867;42.658;23.320;2023-02-11T05:34:00;67;51;
77699;PMS5003;66867;42.658;23.320;2023-02-11T05:35:00;67;54;
77699;PMS5003;66867;42.658;23.320;2023-02-11T05:36:03;69;55;
77699;PMS5003;66867;42.658;23.320;2023-02-11T05:37:00;67;54;
77699;PMS5003;66867;42.658;23.320;2023-02-11T05:38:00;63;54;
77699;PMS5003;66867;42.658;23.320;2023-02-11T05:39:00;71;58;
77699;PMS5003;66867;42.658;23.320;2023-02-11T05:40:00;64;51;
77699;PMS5003;66867;42.658;23.320;2023-02-11T05:41:00;55;48;
77699;PMS5003;66867;42.658;23.320;2023-02-11T05:42:00;66;53;
77699;PMS5003;66867;42.658;23.320;2023-02-11T05:43:00;62;50;
77699;PMS5003;66867;42.658;23.320;2023-02-11T05:44:00;68;57;
77699;PMS5003;66867;42.658;23.320;2023-02-11T05:45:00;67;54;
77699;PMS5003;66867;42.658;23.320;2023-02-11T05:46:00;70;54;
77699;PMS5003;66867;42.658;23.320;2023-02-11T05:47:00;60;50;
77699;PMS5003;66867;42.658;23.320;2023-02-11T05:48:00;61;51;
77699;PMS5003;66867;42.658;23.320;2023-02-11T05:49:00;67;57;
77699;PMS5003;66867;42.658;23.320;2023-02-11T05:50:00;65;54;
77699;PMS5003;66867;42.658;23.320;2023-02-11T05:51:00;73;57;
77699;PMS5003;66867;42.658;23.320;2023-02-11T05:52:00;64;51;
77699;PMS5003;66867;42.658;23.320;2023-02-11T05:53:00;70;55;
77699;PMS5003;66867;42.658;23.320;2023-02-11T05:54:00;70;57;
77699;PMS5003;66867;42.658;23.320;2023-02-11T05:55:00;70;55;
77699;PMS5003;66867;42.658;23.320;2023-02-11T05:56:00;63;53;
77699;PMS5003;66867;42.658;23.320;2023-02-11T05:57:00;64;53;
77699;PMS5003;66867;42.658;23.320;2023-02-11T05:58:00;64;53;
77699;PMS5003;66867;42.658;23.320;2023-02-11T05:59:00;67;55;
77699;PMS5003;66867;42.658;23.320;2023-02-11T06:00:00;70;55;
77699;PMS5003;66867;42.658;23.320;2023-02-11T06:01:00;70;57;
77699;PMS5003;66867;42.658;23.320;2023-02-11T06:02:00;65;54;
77699;PMS5003;66867;42.658;23.320;2023-02-11T06:03:00;65;55;
77699;PMS5003;66867;42.658;23.320;2023-02-11T06:04:00;68;56;
77699;PMS5003;66867;42.658;23.320;2023-02-11T06:05:00;68;55;
77699;PMS5003;66867;42.658;23.320;2023-02-11T06:06:00;67;56;
77699;PMS5003;66867;42.658;23.320;2023-02-11T06:07:00;64;55;
77699;PMS5003;66867;42.658;23.320;2023-02-11T06:08:00;68;55;
77699;PMS5003;66867;42.658;23.320;2023-02-11T06:09:00;65;55;
77699;PMS5003;66867;42.658;23.320;2023-02-11T06:10:00;75;58;
77699;PMS5003;66867;42.658;23.320;2023-02-11T06:11:00;81;63;
77699;PMS5003;66867;42.658;23.320;2023-02-11T06:12:00;81;64;
77699;PMS5003;66867;42.658;23.320;2023-02-11T06:13:00;81;65;
77699;PMS5003;66867;42.658;23.320;2023-02-11T06:14:00;83;63;
77699;PMS5003;66867;42.658;23.320;2023-02-11T06:15:00;80;64;
77699;PMS5003;66867;42.658;23.320;2023-02-11T06:16:01;84;67;
77699;PMS5003;66867;42.658;23.320;2023-02-11T06:17:00;76;60;
77699;PMS5003;66867;42.658;23.320;2023-02-11T06:18:00;76;62;
77699;PMS5003;66867;42.658;23.320;2023-02-11T06:19:00;72;59;
77699;PMS5003;66867;42.658;23.320;2023-02-11T06:20:00;82;65;
77699;PMS5003;66867;42.658;23.320;2023-02-11T06:21:00;86;66;
77699;PMS5003;66867;42.658;23.320;2023-02-11T06:22:00;84;65;
77699;PMS5003;66867;42.658;23.320;2023-02-11T06:23:00;79;63;
77699;PMS5003;66867;42.658;23.320;2023-02-11T06:24:00;88;69;
77699;PMS5003;66867;42.658;23.320;2023-02-11T06:25:00;80;64;
77699;PMS5003;66867;42.658;23.320;2023-02-11T06:26:02;76;62;
77699;PMS5003;66867;42.658;23.320;2023-02-11T06:27:01;87;65;
77699;PMS5003;66867;42.658;23.320;2023-02-11T06:28:00;80;61;
77699;PMS5003;66867;42.658;23.320;2023-02-11T06:29:00;80;64;
77699;PMS5003;66867;42.658;23.320;2023-02-11T06:30:00;74;61;
77699;PMS5003;66867;42.658;23.320;2023-02-11T06:31:05;80;62;
77699;PMS5003;66867;42.658;23.320;2023-02-11T06:32:00;77;60;
77699;PMS5003;66867;42.658;23.320;2023-02-11T06:33:00;71;59;
77699;PMS5003;66867;42.658;23.320;2023-02-11T06:34:00;77;63;
77699;PMS5003;66867;42.658;23.320;2023-02-11T06:35:00;75;59;
77699;PMS5003;66867;42.658;23.320;2023-02-11T06:36:00;78;62;
77699;PMS5003;66867;42.658;23.320;2023-02-11T06:37:00;79;63;
77699;PMS5003;66867;42.658;23.320;2023-02-11T06:38:00;77;62;
77699;PMS5003;66867;42.658;23.320;2023-02-11T06:39:01;80;63;
77699;PMS5003;66867;42.658;23.320;2023-02-11T06:40:00;78;61;
77699;PMS5003;66867;42.658;23.320;2023-02-11T06:41:00;73;60;
77699;PMS5003;66867;42.658;23.320;2023-02-11T06:42:00;78;62;
77699;PMS5003;66867;42.658;23.320;2023-02-11T06:43:00;75;62;
77699;PMS5003;66867;42.658;23.320;2023-02-11T06:44:00;71;58;
77699;PMS5003;66867;42.658;23.320;2023-02-11T06:45:00;77;62;
77699;PMS5003;66867;42.658;23.320;2023-02-11T06:46:00;75;59;
77699;PMS5003;66867;42.658;23.320;2023-02-11T06:47:00;70;58;
77699;PMS5003;66867;42.658;23.320;2023-02-11T06:48:00;75;62;
77699;PMS5003;66867;42.658;23.320;2023-02-11T06:49:00;75;61;
77699;PMS5003;66867;42.658;23.320;2023-02-11T06:50:00;74;61;
77699;PMS5003;66867;42.658;23.320;2023-02-11T06:51:02;72;58;
77699;PMS5003;66867;42.658;23.320;2023-02-11T06:52:00;74;58;
77699;PMS5003;66867;42.658;23.320;2023-02-11T06:53:00;74;61;
77699;PMS5003;66867;42.658;23.320;2023-02-11T06:54:00;74;58;
77699;PMS5003;66867;42.658;23.320;2023-02-11T06:55:00;71;59;
77699;PMS5003;66867;42.658;23.320;2023-02-11T06:56:01;73;58;
77699;PMS5003;66867;42.658;23.320;2023-02-11T06:57:00;75;59;
77699;PMS5003;66867;42.658;23.320;2023-02-11T06:58:00;74;59;
77699;PMS5003;66867;42.658;23.320;2023-02-11T06:59:00;70;56;